Time;durP1;ratioP1;P1;durP2;ratioP2;P2;SDS_P1;SDS_P2;PMS_P1;PMS_P2;Temp;Humidity;BMP_temperature;BMP_pressure;BME280_temperature;BME280_humidity;BME280_pressure;Samples;Min_cycle;Max_cycle;Signal;HPM_P1;HPM_P2
2022/01/27 11:28:11;;;;;;;2.00;1.80;;;;;;;;;;5042216;28;20226;-73
2022/01/27 11:30:58;;;;;;;6.83;1.67;;;;;;;;;;5044856;28;20202;-71
2022/01/27 11:33:31;;;;;;;3.60;1.33;;;;;;;;;;5043453;28;20240;-71
2022/01/27 11:36:09;;;;;;;1.87;1.70;;;;;;;;;;5045256;28;20586;-73
2022/01/27 11:38:36;;;;;;;1.03;1.03;;;;;;;;;;5041660;28;20191;-72
2022/01/27 11:41:05;;;;;;;5.73;1.47;;;;;;;;;;5045779;28;20282;-72
2022/01/27 11:43:34;;;;;;;1.97;1.70;;;;;;;;;;5046336;28;20196;-71
2022/01/27 11:46:15;;;;;;;1.93;1.53;;;;;;;;;;5048811;28;20206;-74
2022/01/27 11:48:43;;;;;;;0.83;0.83;;;;;;;;;;5044329;28;20195;-72
2022/01/27 11:51:12;;;;;;;1.60;1.50;;;;;;;;;;5042552;28;20204;-73
2022/01/27 11:53:42;;;;;;;1.90;0.70;;;;;;;;;;5046046;28;20762;-74
2022/01/27 11:56:16;;;;;;;1.13;1.03;;;;;;;;;;5044747;28;20203;-73
2022/01/27 11:58:47;;;;;;;1.13;1.03;;;;;;;;;;5044349;28;20205;-72
2022/01/27 12:01:17;;;;;;;0.83;0.67;;;;;;;;;;5043253;28;20243;-72
2022/01/27 12:04:04;;;;;;;1.60;1.13;;;;;;;;;;5046749;28;20246;-73
2022/01/27 12:06:32;;;;;;;1.47;1.13;;;;;;;;;;5047418;28;20222;-71
2022/01/27 12:09:14;;;;;;;4.23;2.90;;;;;;;;;;5039144;28;20227;-72
2022/01/27 12:11:45;;;;;;;0.30;0.30;;;;;;;;;;5029799;28;20203;-74
2022/01/27 12:14:14;;;;;;;1.10;1.00;;;;;;;;;;5035248;28;20374;-72
2022/01/27 12:16:54;;;;;;;7.00;2.13;;;;;;;;;;5043733;28;20202;-70
2022/01/27 12:19:22;;;;;;;1.47;1.37;;;;;;;;;;5045176;28;20286;-72
2022/01/27 12:21:59;;;;;;;5.60;1.60;;;;;;;;;;5046554;28;20191;-71
2022/01/27 12:24:28;;;;;;;0.60;0.50;;;;;;;;;;5039356;28;20642;-72
2022/01/27 12:26:58;;;;;;;7.03;1.70;;;;;;;;;;5042981;28;20661;-71
2022/01/27 12:29:30;;;;;;;2.13;1.93;;;;;;;;;;5040574;28;20680;-75
2022/01/27 12:31:58;;;;;;;4.60;1.40;;;;;;;;;;5041955;28;20198;-75
2022/01/27 12:34:25;;;;;;;2.97;2.40;;;;;;;;;;5041256;28;20215;-73
2022/01/27 12:36:57;;;;;;;2.23;2.03;;;;;;;;;;5027625;28;20203;-74
2022/01/27 12:39:25;;;;;;;6.93;1.87;;;;;;;;;;5026915;28;20196;-78
2022/01/27 12:41:54;;;;;;;6.17;2.20;;;;;;;;;;5029386;28;20209;-73
2022/01/27 12:44:23;;;;;;;1.30;1.20;;;;;;;;;;5028932;28;20200;-71
2022/01/27 12:47:06;;;;;;;3.77;2.23;;;;;;;;;;5032359;28;20195;-71
2022/01/27 12:49:36;;;;;;;6.33;1.10;;;;;;;;;;5026842;28;20212;-71
2022/01/27 12:52:07;;;;;;;6.43;2.43;;;;;;;;;;5023962;28;20200;-75
2022/01/27 12:54:35;;;;;;;1.00;0.90;;;;;;;;;;5028329;28;20252;-71
2022/01/27 12:57:02;;;;;;;4.33;1.83;;;;;;;;;;5027955;28;20201;-71
2022/01/27 12:59:35;;;;;;;4.27;1.37;;;;;;;;;;5025755;28;20204;-70
2022/01/27 13:02:04;;;;;;;16.60;1.77;;;;;;;;;;5024843;28;20216;-73
2022/01/27 13:04:32;;;;;;;7.53;2.10;;;;;;;;;;5026074;28;20208;-73
2022/01/27 13:07:00;;;;;;;2.03;1.87;;;;;;;;;;5025353;28;20762;-73
2022/01/27 13:09:28;;;;;;;4.43;1.30;;;;;;;;;;5024289;28;20728;-74
2022/01/27 13:11:57;;;;;;;2.07;1.47;;;;;;;;;;5018472;28;20307;-72
2022/01/27 13:14:25;;;;;;;1.40;1.30;;;;;;;;;;5024289;28;20266;-71
2022/01/27 13:16:58;;;;;;;3.77;1.20;;;;;;;;;;5023409;28;20207;-75
2022/01/27 13:19:43;;;;;;;0.97;0.90;;;;;;;;;;5024689;28;20203;-73
2022/01/27 13:22:16;;;;;;;0.87;0.70;;;;;;;;;;5023766;28;20295;-73
2022/01/27 13:24:47;;;;;;;1.37;1.20;;;;;;;;;;5024812;28;20827;-69
2022/01/27 13:27:15;;;;;;;1.10;0.77;;;;;;;;;;5014364;28;21469;-69
2022/01/27 13:29:45;;;;;;;2.47;1.27;;;;;;;;;;5022750;28;21075;-72
2022/01/27 13:32:14;;;;;;;3.23;1.27;;;;;;;;;;5021553;28;20216;-73
2022/01/27 13:34:45;;;;;;;0.80;0.80;;;;;;;;;;5022240;28;20235;-70
2022/01/27 13:37:13;;;;;;;4.67;1.37;;;;;;;;;;5017392;28;20208;-74
2022/01/27 13:41:16;;;;;;;1.13;1.03;;;;;;;;;;5019801;28;20210;-70
2022/01/27 13:42:37;;;;;;;0.57;0.57;;;;;;;;;;5022525;28;20687;-76
2022/01/27 13:45:05;;;;;;;1.13;0.83;;;;;;;;;;5023669;28;20281;-69
2022/01/27 13:47:34;;;;;;;1.57;1.20;;;;;;;;;;5017962;28;20618;-68
2022/01/27 13:50:09;;;;;;;1.40;1.17;;;;;;;;;;5024012;28;21084;-68
2022/01/27 13:52:41;;;;;;;5.93;1.73;;;;;;;;;;5020546;28;20185;-69
2022/01/27 13:55:09;;;;;;;4.00;1.30;;;;;;;;;;5026211;28;20223;-70
2022/01/27 13:57:47;;;;;;;11.63;1.70;;;;;;;;;;5022709;28;20609;-73
2022/01/27 14:00:17;;;;;;;1.40;1.13;;;;;;;;;;5023988;28;20210;-74
2022/01/27 14:02:48;;;;;;;4.83;2.23;;;;;;;;;;5023432;28;20303;-75
2022/01/27 14:05:16;;;;;;;9.30;1.10;;;;;;;;;;5023052;28;20571;-72
2022/01/27 14:07:50;;;;;;;0.37;0.37;;;;;;;;;;5022390;28;20201;-75
2022/01/27 14:10:19;;;;;;;5.83;2.07;;;;;;;;;;5025536;28;20769;-73
2022/01/27 14:12:54;;;;;;;4.87;1.93;;;;;;;;;;5022714;28;20215;-72
2022/01/27 14:15:29;;;;;;;2.83;0.90;;;;;;;;;;5022661;28;20227;-71
2022/01/27 14:18:02;;;;;;;1.40;1.33;;;;;;;;;;5022326;28;20223;-76
2022/01/27 14:20:30;;;;;;;1.10;1.03;;;;;;;;;;5025304;28;20678;-72
2022/01/27 14:23:15;;;;;;;0.37;0.37;;;;;;;;;;5032285;28;20211;-73
2022/01/27 14:25:49;;;;;;;1.50;1.00;;;;;;;;;;5030111;28;20262;-69
2022/01/27 14:28:16;;;;;;;1.43;1.33;;;;;;;;;;5029485;28;20224;-69
2022/01/27 14:30:44;;;;;;;1.17;1.07;;;;;;;;;;5029249;28;20459;-73
2022/01/27 14:33:13;;;;;;;1.03;1.00;;;;;;;;;;5029104;28;20569;-73
2022/01/27 14:35:42;;;;;;;4.87;1.50;;;;;;;;;;5027647;28;20553;-70
2022/01/27 14:38:09;;;;;;;0.97;0.90;;;;;;;;;;5031812;28;20208;-68
2022/01/27 14:40:38;;;;;;;2.93;2.60;;;;;;;;;;5029542;28;20793;-65
2022/01/27 14:43:05;;;;;;;1.57;1.17;;;;;;;;;;5025727;28;20254;-70
2022/01/27 14:45:33;;;;;;;1.23;1.13;;;;;;;;;;5026565;28;20251;-65
2022/01/27 14:48:05;;;;;;;1.10;1.03;;;;;;;;;;5020425;28;20210;-69
2022/01/27 14:50:37;;;;;;;0.70;0.70;;;;;;;;;;5022868;28;20207;-72
2022/01/27 14:53:04;;;;;;;0.43;0.43;;;;;;;;;;5017775;28;20200;-73
2022/01/27 14:55:33;;;;;;;2.63;1.80;;;;;;;;;;5021375;28;20232;-69
2022/01/27 14:58:00;;;;;;;0.50;0.43;;;;;;;;;;5022305;28;21067;-70
2022/01/27 15:00:28;;;;;;;0.90;0.80;;;;;;;;;;5027684;28;20204;-70
2022/01/27 15:02:55;;;;;;;1.70;0.97;;;;;;;;;;5024110;28;20196;-69
2022/01/27 15:05:23;;;;;;;2.73;1.20;;;;;;;;;;5028413;28;20214;-70
2022/01/27 15:07:52;;;;;;;0.70;0.70;;;;;;;;;;5025946;28;20286;-75
2022/01/27 15:10:20;;;;;;;6.43;0.73;;;;;;;;;;5021578;28;20684;-71
2022/01/27 15:12:48;;;;;;;2.07;1.70;;;;;;;;;;5019150;28;20619;-73
2022/01/27 15:20:46;;;;;;;1.90;1.03;;;;;;;;;;5013230;28;20211;-70
2022/01/27 15:23:18;;;;;;;3.27;0.67;;;;;;;;;;5017707;28;20192;-70
2022/01/27 15:25:47;;;;;;;5.50;1.93;;;;;;;;;;5023050;28;20658;-70
2022/01/27 15:28:15;;;;;;;0.73;0.73;;;;;;;;;;5015684;28;20204;-71
2022/01/27 15:30:43;;;;;;;0.40;0.40;;;;;;;;;;5022036;28;20252;-67
2022/01/27 15:33:11;;;;;;;0.30;0.30;;;;;;;;;;5024123;28;20211;-71
2022/01/27 15:35:38;;;;;;;1.67;1.23;;;;;;;;;;5025622;28;20344;-72
2022/01/27 15:38:06;;;;;;;8.57;1.07;;;;;;;;;;5019140;28;20204;-71
2022/01/27 15:40:37;;;;;;;0.67;0.67;;;;;;;;;;5021895;28;20200;-71
2022/01/27 15:43:06;;;;;;;4.97;1.53;;;;;;;;;;5026066;28;20703;-74
2022/01/27 15:45:34;;;;;;;1.07;1.00;;;;;;;;;;5018714;28;20196;-71
2022/01/27 15:48:02;;;;;;;1.17;1.07;;;;;;;;;;5020853;28;20196;-71
2022/01/27 15:50:29;;;;;;;0.37;0.30;;;;;;;;;;5018466;28;20201;-71
2022/01/27 15:52:57;;;;;;;1.10;1.03;;;;;;;;;;5021278;28;20696;-72
2022/01/27 15:55:27;;;;;;;0.77;0.47;;;;;;;;;;5019741;28;20224;-71
2022/01/27 15:57:56;;;;;;;1.07;0.97;;;;;;;;;;5022092;28;20612;-72
2022/01/27 16:00:24;;;;;;;0.93;0.83;;;;;;;;;;5020450;28;20196;-72
2022/01/27 16:02:51;;;;;;;0.00;0.00;;;;;;;;;;5020715;28;20198;-71
2022/01/27 16:05:19;;;;;;;0.37;0.37;;;;;;;;;;5020160;28;20205;-72
2022/01/27 16:07:47;;;;;;;0.30;0.30;;;;;;;;;;5021212;28;20208;-71
2022/01/27 16:10:15;;;;;;;0.00;0.00;;;;;;;;;;5020542;28;20201;-71
2022/01/27 16:12:42;;;;;;;0.63;0.30;;;;;;;;;;5021703;28;20208;-71
2022/01/27 16:15:12;;;;;;;0.17;0.10;;;;;;;;;;5020953;28;20246;-72
2022/01/27 16:17:40;;;;;;;0.67;0.30;;;;;;;;;;5030098;28;20203;-70
2022/01/27 16:20:12;;;;;;;0.10;0.10;;;;;;;;;;5030531;28;21096;-70
2022/01/27 16:22:40;;;;;;;0.23;0.23;;;;;;;;;;5027185;28;20307;-71
2022/01/27 16:25:08;;;;;;;0.00;0.00;;;;;;;;;;5025664;28;20601;-69
2022/01/27 16:27:36;;;;;;;0.63;0.30;;;;;;;;;;5030168;28;20203;-72
2022/01/27 16:30:03;;;;;;;0.23;0.23;;;;;;;;;;5029880;28;20207;-68
2022/01/27 16:32:32;;;;;;;0.30;0.30;;;;;;;;;;5027575;28;20215;-71
2022/01/27 16:34:59;;;;;;;0.00;0.00;;;;;;;;;;5027623;28;20225;-73
2022/01/27 16:37:29;;;;;;;0.60;0.60;;;;;;;;;;5029311;28;20258;-76
2022/01/27 16:39:56;;;;;;;0.40;0.40;;;;;;;;;;5027175;28;20757;-74
2022/01/27 16:42:24;;;;;;;0.40;0.10;;;;;;;;;;5028147;28;20713;-74
2022/01/27 16:44:51;;;;;;;2.10;1.93;;;;;;;;;;5030041;28;20207;-75
2022/01/27 16:47:19;;;;;;;0.10;0.10;;;;;;;;;;5023127;28;20200;-75
2022/01/27 16:49:47;;;;;;;0.17;0.10;;;;;;;;;;5026059;28;20241;-73
2022/01/27 16:52:15;;;;;;;0.00;0.00;;;;;;;;;;5027267;28;20301;-74
2022/01/27 16:54:42;;;;;;;0.20;0.20;;;;;;;;;;5026481;28;20204;-78
2022/01/27 16:57:10;;;;;;;0.23;0.23;;;;;;;;;;5024842;28;20574;-77
2022/01/27 16:59:38;;;;;;;0.20;0.20;;;;;;;;;;5023857;28;20207;-72
2022/01/27 17:02:05;;;;;;;0.00;0.00;;;;;;;;;;5023689;28;20208;-71
2022/01/27 17:04:33;;;;;;;0.00;0.00;;;;;;;;;;5026776;28;20216;-74
2022/01/27 17:07:01;;;;;;;2.37;0.40;;;;;;;;;;5029269;28;20651;-72
2022/01/27 17:09:29;;;;;;;0.23;0.10;;;;;;;;;;5019851;28;20208;-72
2022/01/27 17:11:56;;;;;;;0.00;0.00;;;;;;;;;;5030526;28;20207;-72
2022/01/27 17:14:24;;;;;;;0.00;0.00;;;;;;;;;;5030820;28;20200;-72
2022/01/27 17:16:54;;;;;;;1.23;0.90;;;;;;;;;;5029786;28;20231;-73
2022/01/27 17:19:21;;;;;;;0.00;0.00;;;;;;;;;;5024884;28;20665;-73
2022/01/27 17:21:49;;;;;;;0.10;0.10;;;;;;;;;;5032674;28;20284;-72
2022/01/27 17:24:17;;;;;;;0.00;0.00;;;;;;;;;;5014788;28;20697;-72
2022/01/27 17:26:45;;;;;;;0.43;0.43;;;;;;;;;;5029758;28;20191;-71
2022/01/27 17:29:12;;;;;;;0.00;0.00;;;;;;;;;;5024809;28;20212;-73
2022/01/27 17:31:39;;;;;;;0.00;0.00;;;;;;;;;;5026652;28;20206;-71
2022/01/27 17:34:07;;;;;;;0.10;0.10;;;;;;;;;;5020642;28;20205;-73
2022/01/27 17:36:34;;;;;;;0.10;0.10;;;;;;;;;;5030698;28;20228;-73
2022/01/27 17:39:01;;;;;;;0.00;0.00;;;;;;;;;;5029977;28;20623;-72
2022/01/27 17:41:30;;;;;;;1.77;1.70;;;;;;;;;;5030376;28;20196;-72
2022/01/27 17:44:10;;;;;;;0.00;0.00;;;;;;;;;;5029509;28;20207;-72
2022/01/27 17:46:42;;;;;;;0.00;0.00;;;;;;;;;;5029217;28;20261;-73
2022/01/27 17:49:12;;;;;;;0.00;0.00;;;;;;;;;;5024326;28;20295;-72
2022/01/27 17:51:39;;;;;;;0.00;0.00;;;;;;;;;;5026764;28;20210;-71
2022/01/27 17:54:07;;;;;;;0.00;0.00;;;;;;;;;;5030876;28;20214;-74
2022/01/27 17:56:35;;;;;;;0.00;0.00;;;;;;;;;;5024930;28;20242;-73
2022/01/27 17:59:03;;;;;;;0.00;0.00;;;;;;;;;;5028655;28;20663;-72
2022/01/27 18:01:30;;;;;;;0.00;0.00;;;;;;;;;;5032762;28;20187;-72
2022/01/27 18:03:58;;;;;;;0.00;0.00;;;;;;;;;;5031173;28;20199;-72
2022/01/27 18:06:26;;;;;;;0.00;0.00;;;;;;;;;;5025758;28;20196;-72
2022/01/27 18:08:54;;;;;;;0.10;0.10;;;;;;;;;;5020728;28;20306;-73
2022/01/27 18:11:24;;;;;;;0.00;0.00;;;;;;;;;;5031767;28;20208;-73
2022/01/27 18:13:54;;;;;;;0.00;0.00;;;;;;;;;;5031064;28;20195;-73
2022/01/27 18:16:21;;;;;;;0.00;0.00;;;;;;;;;;5034474;28;20235;-72
2022/01/27 18:18:49;;;;;;;0.00;0.00;;;;;;;;;;5030196;28;20606;-71
2022/01/27 18:21:16;;;;;;;0.00;0.00;;;;;;;;;;5025688;28;20207;-72
2022/01/27 18:23:44;;;;;;;0.00;0.00;;;;;;;;;;5027576;28;20231;-73
2022/01/27 18:26:11;;;;;;;0.37;0.37;;;;;;;;;;5029577;28;20203;-73
2022/01/27 18:28:39;;;;;;;0.00;0.00;;;;;;;;;;5015403;28;20205;-73
2022/01/27 18:31:08;;;;;;;0.00;0.00;;;;;;;;;;5039461;28;20192;-72
2022/01/27 18:33:35;;;;;;;0.00;0.00;;;;;;;;;;5028095;28;20187;-72
2022/01/27 18:36:03;;;;;;;0.00;0.00;;;;;;;;;;5028117;28;20231;-73
2022/01/27 18:38:30;;;;;;;0.00;0.00;;;;;;;;;;5030624;28;20196;-75
2022/01/27 18:40:58;;;;;;;0.20;0.20;;;;;;;;;;5031948;28;20404;-73
2022/01/27 18:43:26;;;;;;;0.00;0.00;;;;;;;;;;5027042;28;20306;-72
2022/01/27 18:45:54;;;;;;;0.00;0.00;;;;;;;;;;5016767;28;20283;-73
2022/01/27 18:48:23;;;;;;;0.00;0.00;;;;;;;;;;5031316;28;20205;-73
2022/01/27 18:50:50;;;;;;;0.00;0.00;;;;;;;;;;5023219;28;20199;-73
2022/01/27 18:53:18;;;;;;;0.30;0.30;;;;;;;;;;5024008;28;20673;-73
2022/01/27 18:55:46;;;;;;;1.17;0.33;;;;;;;;;;5023778;28;20696;-73
2022/01/27 18:58:14;;;;;;;0.17;0.17;;;;;;;;;;5029393;28;20204;-72
2022/01/27 19:00:41;;;;;;;0.10;0.10;;;;;;;;;;5022649;28;20647;-74
2022/01/27 19:03:09;;;;;;;0.00;0.00;;;;;;;;;;5021335;28;20200;-73
2022/01/27 19:05:42;;;;;;;0.00;0.00;;;;;;;;;;5026967;28;20211;-72
2022/01/27 19:08:10;;;;;;;0.00;0.00;;;;;;;;;;5024026;28;20688;-72
2022/01/27 19:10:38;;;;;;;0.00;0.00;;;;;;;;;;5022444;28;20791;-73
2022/01/27 19:13:07;;;;;;;0.00;0.00;;;;;;;;;;5028205;28;20193;-73
2022/01/27 19:15:36;;;;;;;0.00;0.00;;;;;;;;;;5027780;28;20204;-72
2022/01/27 19:18:04;;;;;;;0.00;0.00;;;;;;;;;;5028583;28;20195;-72
2022/01/27 19:20:31;;;;;;;0.00;0.00;;;;;;;;;;5033027;28;20460;-73
2022/01/27 19:23:01;;;;;;;0.00;0.00;;;;;;;;;;5033134;28;20196;-72
2022/01/27 19:25:30;;;;;;;0.00;0.00;;;;;;;;;;5027396;28;20227;-72
2022/01/27 19:27:57;;;;;;;0.07;0.07;;;;;;;;;;5027047;28;20755;-73
2022/01/27 19:30:25;;;;;;;0.07;0.07;;;;;;;;;;5033755;28;20208;-73
2022/01/27 19:32:54;;;;;;;0.00;0.00;;;;;;;;;;5031376;28;20276;-73
2022/01/27 19:35:22;;;;;;;0.63;0.40;;;;;;;;;;5028092;28;20202;-73
2022/01/27 19:37:50;;;;;;;0.10;0.10;;;;;;;;;;5031301;28;20231;-72
2022/01/27 19:40:19;;;;;;;0.10;0.10;;;;;;;;;;5030886;28;20202;-72
2022/01/27 19:42:47;;;;;;;0.00;0.00;;;;;;;;;;5027876;28;20204;-72
2022/01/27 19:45:15;;;;;;;0.00;0.00;;;;;;;;;;5020619;28;20204;-73
2022/01/27 19:47:42;;;;;;;0.10;0.10;;;;;;;;;;5032359;28;20192;-72
2022/01/27 19:50:11;;;;;;;0.77;0.77;;;;;;;;;;5032722;28;20275;-73
2022/01/27 19:52:42;;;;;;;0.00;0.00;;;;;;;;;;5030005;28;20197;-74
2022/01/27 19:55:10;;;;;;;0.00;0.00;;;;;;;;;;5033727;28;20222;-71
2022/01/27 19:57:39;;;;;;;0.00;0.00;;;;;;;;;;5029127;28;20229;-71
2022/01/27 20:00:11;;;;;;;0.00;0.00;;;;;;;;;;5037056;28;20735;-73
2022/01/27 20:02:40;;;;;;;0.10;0.10;;;;;;;;;;5035029;28;20632;-73
2022/01/27 20:05:08;;;;;;;0.00;0.00;;;;;;;;;;5026254;28;20212;-73
2022/01/27 20:07:36;;;;;;;0.00;0.00;;;;;;;;;;5013549;28;20200;-74
2022/01/27 20:10:03;;;;;;;0.00;0.00;;;;;;;;;;5021433;28;20667;-74
2022/01/27 20:12:32;;;;;;;0.00;0.00;;;;;;;;;;5032075;28;20189;-74
2022/01/27 20:15:01;;;;;;;0.10;0.10;;;;;;;;;;5026395;28;20243;-73
2022/01/27 20:17:28;;;;;;;0.00;0.00;;;;;;;;;;5032001;28;20236;-73
2022/01/27 20:19:56;;;;;;;0.37;0.20;;;;;;;;;;5044410;28;20192;-73
2022/01/27 20:22:23;;;;;;;0.00;0.00;;;;;;;;;;5032463;28;20203;-73
2022/01/27 20:24:53;;;;;;;0.00;0.00;;;;;;;;;;5030903;28;20584;-74
2022/01/27 20:27:20;;;;;;;0.10;0.10;;;;;;;;;;5029907;28;20204;-73
2022/01/27 20:29:47;;;;;;;0.00;0.00;;;;;;;;;;5033188;28;20294;-74
2022/01/27 20:32:16;;;;;;;0.00;0.00;;;;;;;;;;5025737;28;20552;-73
2022/01/27 20:34:44;;;;;;;0.00;0.00;;;;;;;;;;5027748;28;20577;-74
2022/01/27 20:37:11;;;;;;;0.00;0.00;;;;;;;;;;5030659;28;20231;-72
2022/01/27 20:39:38;;;;;;;0.00;0.00;;;;;;;;;;5023809;28;20205;-72
2022/01/27 20:42:06;;;;;;;0.00;0.00;;;;;;;;;;5015606;28;20646;-73
2022/01/27 20:44:33;;;;;;;0.00;0.00;;;;;;;;;;5041332;28;20207;-73
2022/01/27 20:47:00;;;;;;;0.00;0.00;;;;;;;;;;5030607;28;20636;-73
2022/01/27 20:49:29;;;;;;;0.47;0.30;;;;;;;;;;5031004;28;20211;-73
2022/01/27 20:51:57;;;;;;;0.00;0.00;;;;;;;;;;5029043;28;20197;-73
